sensor_id;sensor_type;location;lat;lon;timestamp;temperature;humidity
18321;DHT22;54904;54.350;18.664;2024-01-11T00:00:46;4.60;99.90
18321;DHT22;54904;54.350;18.664;2024-01-11T00:03:15;4.50;99.90
18321;DHT22;54904;54.350;18.664;2024-01-11T00:05:42;4.50;99.90
18321;DHT22;54904;54.350;18.664;2024-01-11T00:08:11;4.50;99.90
18321;DHT22;54904;54.350;18.664;2024-01-11T00:10:38;4.50;99.90
18321;DHT22;54904;54.350;18.664;2024-01-11T00:13:05;4.60;99.90
18321;DHT22;54904;54.350;18.664;2024-01-11T00:15:32;4.60;99.90
18321;DHT22;54904;54.350;18.664;2024-01-11T00:17:59;4.60;99.90
18321;DHT22;54904;54.350;18.664;2024-01-11T00:20:27;4.60;99.90
18321;DHT22;54904;54.350;18.664;2024-01-11T00:22:54;4.60;99.90
18321;DHT22;54904;54.350;18.664;2024-01-11T00:25:21;4.60;99.90
18321;DHT22;54904;54.350;18.664;2024-01-11T00:27:49;4.60;99.90
18321;DHT22;54904;54.350;18.664;2024-01-11T00:30:16;4.60;99.90
18321;DHT22;54904;54.350;18.664;2024-01-11T00:32:43;4.60;99.90
18321;DHT22;54904;54.350;18.664;2024-01-11T00:35:10;4.70;99.90
18321;DHT22;54904;54.350;18.664;2024-01-11T00:37:38;4.60;99.90
18321;DHT22;54904;54.350;18.664;2024-01-11T00:40:07;4.70;99.90
18321;DHT22;54904;54.350;18.664;2024-01-11T00:42:34;4.70;99.90
18321;DHT22;54904;54.350;18.664;2024-01-11T00:45:01;4.70;99.90
18321;DHT22;54904;54.350;18.664;2024-01-11T00:47:28;4.70;99.90
18321;DHT22;54904;54.350;18.664;2024-01-11T00:49:55;4.70;99.90
18321;DHT22;54904;54.350;18.664;2024-01-11T00:52:22;4.70;99.90
18321;DHT22;54904;54.350;18.664;2024-01-11T00:54:50;4.80;99.90
18321;DHT22;54904;54.350;18.664;2024-01-11T00:57:18;4.80;99.90
18321;DHT22;54904;54.350;18.664;2024-01-11T00:59:45;4.80;99.90
18321;DHT22;54904;54.350;18.664;2024-01-11T01:02:12;4.80;99.90
18321;DHT22;54904;54.350;18.664;2024-01-11T01:04:39;4.80;99.90
18321;DHT22;54904;54.350;18.664;2024-01-11T01:07:07;4.80;99.90
18321;DHT22;54904;54.350;18.664;2024-01-11T01:09:34;4.80;99.90
18321;DHT22;54904;54.350;18.664;2024-01-11T01:12:03;4.80;99.90
18321;DHT22;54904;54.350;18.664;2024-01-11T01:14:30;4.80;99.90
18321;DHT22;54904;54.350;18.664;2024-01-11T01:16:57;4.80;99.90
18321;DHT22;54904;54.350;18.664;2024-01-11T01:19:24;4.80;99.90
18321;DHT22;54904;54.350;18.664;2024-01-11T01:21:51;4.80;99.90
18321;DHT22;54904;54.350;18.664;2024-01-11T01:24:18;4.80;99.90
18321;DHT22;54904;54.350;18.664;2024-01-11T01:26:45;4.80;99.90
18321;DHT22;54904;54.350;18.664;2024-01-11T01:29:14;4.80;99.90
18321;DHT22;54904;54.350;18.664;2024-01-11T01:31:41;4.80;99.90
18321;DHT22;54904;54.350;18.664;2024-01-11T01:34:08;4.80;99.90
18321;DHT22;54904;54.350;18.664;2024-01-11T01:36:35;4.80;99.90
18321;DHT22;54904;54.350;18.664;2024-01-11T01:39:02;4.90;99.90
18321;DHT22;54904;54.350;18.664;2024-01-11T01:41:29;4.90;99.90
18321;DHT22;54904;54.350;18.664;2024-01-11T01:43:56;4.90;99.90
18321;DHT22;54904;54.350;18.664;2024-01-11T01:46:25;4.90;99.90
18321;DHT22;54904;54.350;18.664;2024-01-11T01:48:54;4.90;99.90
18321;DHT22;54904;54.350;18.664;2024-01-11T01:51:21;4.90;99.90
18321;DHT22;54904;54.350;18.664;2024-01-11T01:53:49;4.90;99.90
18321;DHT22;54904;54.350;18.664;2024-01-11T01:56:17;4.90;99.90
18321;DHT22;54904;54.350;18.664;2024-01-11T01:58:45;4.90;99.90
18321;DHT22;54904;54.350;18.664;2024-01-11T02:01:13;4.90;99.90
18321;DHT22;54904;54.350;18.664;2024-01-11T02:03:43;4.90;99.90
18321;DHT22;54904;54.350;18.664;2024-01-11T02:06:10;4.90;99.90
18321;DHT22;54904;54.350;18.664;2024-01-11T02:08:38;4.90;99.90
18321;DHT22;54904;54.350;18.664;2024-01-11T02:11:07;4.90;99.90
18321;DHT22;54904;54.350;18.664;2024-01-11T02:13:34;4.90;99.90
18321;DHT22;54904;54.350;18.664;2024-01-11T02:16:02;4.90;99.90
18321;DHT22;54904;54.350;18.664;2024-01-11T02:18:29;4.90;99.90
18321;DHT22;54904;54.350;18.664;2024-01-11T02:20:57;4.90;99.90
18321;DHT22;54904;54.350;18.664;2024-01-11T02:23:24;4.90;99.90
18321;DHT22;54904;54.350;18.664;2024-01-11T02:25:54;4.90;99.90
18321;DHT22;54904;54.350;18.664;2024-01-11T02:28:21;4.80;99.90
18321;DHT22;54904;54.350;18.664;2024-01-11T02:30:48;4.80;99.90
18321;DHT22;54904;54.350;18.664;2024-01-11T02:33:15;4.90;99.90
18321;DHT22;54904;54.350;18.664;2024-01-11T02:35:44;4.90;99.90
18321;DHT22;54904;54.350;18.664;2024-01-11T02:38:11;4.90;99.90
18321;DHT22;54904;54.350;18.664;2024-01-11T02:40:38;4.80;99.90
18321;DHT22;54904;54.350;18.664;2024-01-11T02:43:11;4.80;99.90
18321;DHT22;54904;54.350;18.664;2024-01-11T02:45:38;4.80;99.90
18321;DHT22;54904;54.350;18.664;2024-01-11T02:48:05;4.80;99.90
18321;DHT22;54904;54.350;18.664;2024-01-11T02:50:32;4.80;99.90
18321;DHT22;54904;54.350;18.664;2024-01-11T02:52:59;4.80;99.90
18321;DHT22;54904;54.350;18.664;2024-01-11T02:55:26;4.70;99.90
18321;DHT22;54904;54.350;18.664;2024-01-11T02:57:53;4.70;99.90
18321;DHT22;54904;54.350;18.664;2024-01-11T03:00:22;4.80;99.90
18321;DHT22;54904;54.350;18.664;2024-01-11T03:02:49;4.80;99.90
18321;DHT22;54904;54.350;18.664;2024-01-11T03:05:16;4.80;99.90
18321;DHT22;54904;54.350;18.664;2024-01-11T03:07:43;4.80;99.90
18321;DHT22;54904;54.350;18.664;2024-01-11T03:10:10;4.70;99.90
18321;DHT22;54904;54.350;18.664;2024-01-11T03:12:40;4.80;99.90
18321;DHT22;54904;54.350;18.664;2024-01-11T03:15:07;4.80;99.90
18321;DHT22;54904;54.350;18.664;2024-01-11T03:17:36;4.80;99.90
18321;DHT22;54904;54.350;18.664;2024-01-11T03:20:04;4.80;99.90
18321;DHT22;54904;54.350;18.664;2024-01-11T03:22:31;4.80;99.90
18321;DHT22;54904;54.350;18.664;2024-01-11T03:24:58;4.80;99.90
18321;DHT22;54904;54.350;18.664;2024-01-11T03:27:25;4.80;99.90
18321;DHT22;54904;54.350;18.664;2024-01-11T03:29:52;4.80;99.90
18321;DHT22;54904;54.350;18.664;2024-01-11T03:32:19;4.80;99.90
18321;DHT22;54904;54.350;18.664;2024-01-11T03:34:47;4.70;99.90
18321;DHT22;54904;54.350;18.664;2024-01-11T03:37:14;4.70;99.90
18321;DHT22;54904;54.350;18.664;2024-01-11T03:39:42;4.70;99.90
18321;DHT22;54904;54.350;18.664;2024-01-11T03:42:09;4.70;99.90
18321;DHT22;54904;54.350;18.664;2024-01-11T03:44:36;4.70;99.90
18321;DHT22;54904;54.350;18.664;2024-01-11T03:47:04;4.80;99.90
18321;DHT22;54904;54.350;18.664;2024-01-11T03:49:31;4.80;99.90
18321;DHT22;54904;54.350;18.664;2024-01-11T03:51:59;4.70;99.90
18321;DHT22;54904;54.350;18.664;2024-01-11T03:54:26;4.80;99.90
18321;DHT22;54904;54.350;18.664;2024-01-11T03:56:53;4.70;99.90
18321;DHT22;54904;54.350;18.664;2024-01-11T03:59:20;4.80;99.90
18321;DHT22;54904;54.350;18.664;2024-01-11T04:01:47;4.80;99.90
18321;DHT22;54904;54.350;18.664;2024-01-11T04:04:14;4.70;99.90
18321;DHT22;54904;54.350;18.664;2024-01-11T04:06:41;4.70;99.90
18321;DHT22;54904;54.350;18.664;2024-01-11T04:09:10;4.80;99.90
18321;DHT22;54904;54.350;18.664;2024-01-11T04:11:37;4.70;99.90
18321;DHT22;54904;54.350;18.664;2024-01-11T04:14:04;4.70;99.90
18321;DHT22;54904;54.350;18.664;2024-01-11T04:16:32;4.70;99.90
18321;DHT22;54904;54.350;18.664;2024-01-11T04:18:59;4.80;99.90
18321;DHT22;54904;54.350;18.664;2024-01-11T04:21:28;4.80;99.90
18321;DHT22;54904;54.350;18.664;2024-01-11T04:23:56;4.80;99.90
18321;DHT22;54904;54.350;18.664;2024-01-11T04:26:24;4.80;99.90
18321;DHT22;54904;54.350;18.664;2024-01-11T04:28:52;4.80;99.90
18321;DHT22;54904;54.350;18.664;2024-01-11T04:31:19;4.80;99.90
18321;DHT22;54904;54.350;18.664;2024-01-11T04:33:46;4.80;99.90
18321;DHT22;54904;54.350;18.664;2024-01-11T04:36:13;4.80;99.90
18321;DHT22;54904;54.350;18.664;2024-01-11T04:38:40;4.70;99.90
18321;DHT22;54904;54.350;18.664;2024-01-11T04:41:08;4.80;99.90
18321;DHT22;54904;54.350;18.664;2024-01-11T04:43:37;4.70;99.90
18321;DHT22;54904;54.350;18.664;2024-01-11T04:46:14;4.80;99.90
18321;DHT22;54904;54.350;18.664;2024-01-11T04:48:41;4.80;99.90
18321;DHT22;54904;54.350;18.664;2024-01-11T04:51:08;4.70;99.90
18321;DHT22;54904;54.350;18.664;2024-01-11T04:53:37;4.70;99.90
18321;DHT22;54904;54.350;18.664;2024-01-11T04:56:06;4.70;99.90
18321;DHT22;54904;54.350;18.664;2024-01-11T04:58:33;4.70;99.90
18321;DHT22;54904;54.350;18.664;2024-01-11T05:01:01;4.80;99.90
18321;DHT22;54904;54.350;18.664;2024-01-11T05:03:28;4.80;99.90
18321;DHT22;54904;54.350;18.664;2024-01-11T05:05:56;4.80;99.90
18321;DHT22;54904;54.350;18.664;2024-01-11T05:08:23;4.80;99.90
18321;DHT22;54904;54.350;18.664;2024-01-11T05:10:50;4.80;99.90
18321;DHT22;54904;54.350;18.664;2024-01-11T05:13:17;4.80;99.90
18321;DHT22;54904;54.350;18.664;2024-01-11T05:15:44;4.80;99.90
18321;DHT22;54904;54.350;18.664;2024-01-11T05:18:13;4.80;99.90
18321;DHT22;54904;54.350;18.664;2024-01-11T05:20:40;4.90;99.90
18321;DHT22;54904;54.350;18.664;2024-01-11T05:23:07;4.90;99.90
18321;DHT22;54904;54.350;18.664;2024-01-11T05:25:35;4.90;99.90
18321;DHT22;54904;54.350;18.664;2024-01-11T05:28:03;4.90;99.90
18321;DHT22;54904;54.350;18.664;2024-01-11T05:30:30;4.90;99.90
18321;DHT22;54904;54.350;18.664;2024-01-11T05:32:57;4.90;99.90
18321;DHT22;54904;54.350;18.664;2024-01-11T05:35:26;4.90;99.90
18321;DHT22;54904;54.350;18.664;2024-01-11T05:37:54;5.00;99.90
18321;DHT22;54904;54.350;18.664;2024-01-11T05:40:21;5.00;99.90
18321;DHT22;54904;54.350;18.664;2024-01-11T05:42:48;5.00;99.90
18321;DHT22;54904;54.350;18.664;2024-01-11T05:45:15;5.10;99.90
18321;DHT22;54904;54.350;18.664;2024-01-11T05:47:43;5.10;99.90
18321;DHT22;54904;54.350;18.664;2024-01-11T05:50:11;5.10;99.90
18321;DHT22;54904;54.350;18.664;2024-01-11T05:52:39;5.10;99.90
18321;DHT22;54904;54.350;18.664;2024-01-11T05:55:09;5.20;99.90
18321;DHT22;54904;54.350;18.664;2024-01-11T05:57:36;5.20;99.90
18321;DHT22;54904;54.350;18.664;2024-01-11T06:00:04;5.20;99.90
18321;DHT22;54904;54.350;18.664;2024-01-11T06:02:32;5.20;99.90
18321;DHT22;54904;54.350;18.664;2024-01-11T06:04:59;5.20;99.90
18321;DHT22;54904;54.350;18.664;2024-01-11T06:07:26;5.20;99.90
18321;DHT22;54904;54.350;18.664;2024-01-11T06:09:55;5.10;99.90
18321;DHT22;54904;54.350;18.664;2024-01-11T06:12:22;5.20;99.90
18321;DHT22;54904;54.350;18.664;2024-01-11T06:14:49;5.10;99.90
18321;DHT22;54904;54.350;18.664;2024-01-11T06:17:16;5.10;99.90
18321;DHT22;54904;54.350;18.664;2024-01-11T06:19:43;5.20;99.90
18321;DHT22;54904;54.350;18.664;2024-01-11T06:22:10;5.10;99.90
18321;DHT22;54904;54.350;18.664;2024-01-11T06:24:37;5.10;99.90
18321;DHT22;54904;54.350;18.664;2024-01-11T06:27:05;5.10;99.90
18321;DHT22;54904;54.350;18.664;2024-01-11T06:29:32;5.10;99.90
18321;DHT22;54904;54.350;18.664;2024-01-11T06:31:59;5.10;99.90
18321;DHT22;54904;54.350;18.664;2024-01-11T06:34:26;5.10;99.90
18321;DHT22;54904;54.350;18.664;2024-01-11T06:36:54;5.10;99.90
18321;DHT22;54904;54.350;18.664;2024-01-11T06:39:21;5.10;99.90
18321;DHT22;54904;54.350;18.664;2024-01-11T06:41:48;5.10;99.90
18321;DHT22;54904;54.350;18.664;2024-01-11T06:44:16;5.10;99.90
18321;DHT22;54904;54.350;18.664;2024-01-11T06:46:44;5.10;99.90
18321;DHT22;54904;54.350;18.664;2024-01-11T06:49:11;5.10;99.90
18321;DHT22;54904;54.350;18.664;2024-01-11T06:51:38;5.10;99.90
18321;DHT22;54904;54.350;18.664;2024-01-11T06:54:07;5.10;99.90
18321;DHT22;54904;54.350;18.664;2024-01-11T06:56:34;5.00;99.90
18321;DHT22;54904;54.350;18.664;2024-01-11T06:59:01;5.10;99.90
18321;DHT22;54904;54.350;18.664;2024-01-11T07:01:30;5.00;99.90
18321;DHT22;54904;54.350;18.664;2024-01-11T07:03:57;5.00;99.90
18321;DHT22;54904;54.350;18.664;2024-01-11T07:06:24;5.00;99.90
18321;DHT22;54904;54.350;18.664;2024-01-11T07:08:51;5.00;99.90
18321;DHT22;54904;54.350;18.664;2024-01-11T07:11:18;5.00;99.90
18321;DHT22;54904;54.350;18.664;2024-01-11T07:13:45;5.00;99.90
18321;DHT22;54904;54.350;18.664;2024-01-11T07:16:13;5.00;99.90
18321;DHT22;54904;54.350;18.664;2024-01-11T07:18:41;5.00;99.90
18321;DHT22;54904;54.350;18.664;2024-01-11T07:21:08;5.00;99.90
18321;DHT22;54904;54.350;18.664;2024-01-11T07:23:35;5.00;99.90
18321;DHT22;54904;54.350;18.664;2024-01-11T07:26:02;5.00;99.90
18321;DHT22;54904;54.350;18.664;2024-01-11T07:28:29;5.00;99.90
18321;DHT22;54904;54.350;18.664;2024-01-11T07:30:56;5.00;99.90
18321;DHT22;54904;54.350;18.664;2024-01-11T07:33:23;5.00;99.90
18321;DHT22;54904;54.350;18.664;2024-01-11T07:35:52;5.00;99.90
18321;DHT22;54904;54.350;18.664;2024-01-11T07:38:19;5.00;99.90
18321;DHT22;54904;54.350;18.664;2024-01-11T07:40:46;5.00;99.90
18321;DHT22;54904;54.350;18.664;2024-01-11T07:43:13;5.00;99.90
18321;DHT22;54904;54.350;18.664;2024-01-11T07:45:40;5.00;99.90
18321;DHT22;54904;54.350;18.664;2024-01-11T07:48:07;5.00;99.90
18321;DHT22;54904;54.350;18.664;2024-01-11T07:50:35;5.00;99.90
18321;DHT22;54904;54.350;18.664;2024-01-11T07:53:03;5.00;99.90
18321;DHT22;54904;54.350;18.664;2024-01-11T07:55:31;5.10;99.90
18321;DHT22;54904;54.350;18.664;2024-01-11T07:57:58;5.00;99.90
18321;DHT22;54904;54.350;18.664;2024-01-11T08:00:25;5.00;99.90
18321;DHT22;54904;54.350;18.664;2024-01-11T08:02:52;5.10;99.90
18321;DHT22;54904;54.350;18.664;2024-01-11T08:05:20;5.10;99.90
18321;DHT22;54904;54.350;18.664;2024-01-11T08:07:47;5.10;99.90
18321;DHT22;54904;54.350;18.664;2024-01-11T08:10:15;5.10;99.90
18321;DHT22;54904;54.350;18.664;2024-01-11T08:12:43;5.20;99.90
18321;DHT22;54904;54.350;18.664;2024-01-11T08:15:10;5.20;99.90
18321;DHT22;54904;54.350;18.664;2024-01-11T08:20:24;5.20;99.90
18321;DHT22;54904;54.350;18.664;2024-01-11T08:22:53;5.20;99.90
18321;DHT22;54904;54.350;18.664;2024-01-11T08:25:21;5.20;99.90
18321;DHT22;54904;54.350;18.664;2024-01-11T08:27:48;5.20;99.90
18321;DHT22;54904;54.350;18.664;2024-01-11T08:30:16;5.30;99.90
18321;DHT22;54904;54.350;18.664;2024-01-11T08:32:43;5.30;99.90
18321;DHT22;54904;54.350;18.664;2024-01-11T08:35:10;5.30;99.90
18321;DHT22;54904;54.350;18.664;2024-01-11T08:37:38;5.40;99.90
18321;DHT22;54904;54.350;18.664;2024-01-11T08:40:06;5.40;99.90
18321;DHT22;54904;54.350;18.664;2024-01-11T08:42:36;5.40;99.90
18321;DHT22;54904;54.350;18.664;2024-01-11T08:45:04;5.50;99.90
18321;DHT22;54904;54.350;18.664;2024-01-11T08:47:33;5.50;99.90
18321;DHT22;54904;54.350;18.664;2024-01-11T08:50:00;5.50;99.90
18321;DHT22;54904;54.350;18.664;2024-01-11T08:52:31;5.60;99.90
18321;DHT22;54904;54.350;18.664;2024-01-11T08:54:59;5.60;99.90
18321;DHT22;54904;54.350;18.664;2024-01-11T08:57:26;5.60;99.90
18321;DHT22;54904;54.350;18.664;2024-01-11T08:59:54;5.70;99.90
18321;DHT22;54904;54.350;18.664;2024-01-11T09:02:21;5.70;99.90
18321;DHT22;54904;54.350;18.664;2024-01-11T09:04:51;5.80;99.90
18321;DHT22;54904;54.350;18.664;2024-01-11T09:07:18;5.80;99.90
18321;DHT22;54904;54.350;18.664;2024-01-11T09:09:45;5.80;99.90
18321;DHT22;54904;54.350;18.664;2024-01-11T09:12:12;5.80;99.90
18321;DHT22;54904;54.350;18.664;2024-01-11T09:14:41;5.90;99.90
18321;DHT22;54904;54.350;18.664;2024-01-11T09:17:10;5.90;99.90
18321;DHT22;54904;54.350;18.664;2024-01-11T09:19:40;6.00;99.90
18321;DHT22;54904;54.350;18.664;2024-01-11T09:22:07;6.20;99.90
18321;DHT22;54904;54.350;18.664;2024-01-11T09:24:35;6.60;99.90
18321;DHT22;54904;54.350;18.664;2024-01-11T09:27:03;6.70;99.90
18321;DHT22;54904;54.350;18.664;2024-01-11T09:29:30;7.00;99.90
18321;DHT22;54904;54.350;18.664;2024-01-11T09:31:57;7.80;99.90
18321;DHT22;54904;54.350;18.664;2024-01-11T09:34:25;8.20;99.90
18321;DHT22;54904;54.350;18.664;2024-01-11T09:36:52;8.50;99.90
18321;DHT22;54904;54.350;18.664;2024-01-11T09:39:19;8.70;99.90
18321;DHT22;54904;54.350;18.664;2024-01-11T09:41:52;8.80;99.90
18321;DHT22;54904;54.350;18.664;2024-01-11T09:44:25;8.70;99.90
18321;DHT22;54904;54.350;18.664;2024-01-11T09:46:53;8.60;99.90
18321;DHT22;54904;54.350;18.664;2024-01-11T09:49:22;8.60;99.90
18321;DHT22;54904;54.350;18.664;2024-01-11T09:51:52;8.60;99.90
18321;DHT22;54904;54.350;18.664;2024-01-11T09:54:23;8.50;99.90
18321;DHT22;54904;54.350;18.664;2024-01-11T09:56:52;8.50;99.90
18321;DHT22;54904;54.350;18.664;2024-01-11T09:59:21;8.50;99.90
18321;DHT22;54904;54.350;18.664;2024-01-11T10:01:49;8.70;99.90
18321;DHT22;54904;54.350;18.664;2024-01-11T10:04:16;8.80;99.90
18321;DHT22;54904;54.350;18.664;2024-01-11T10:06:43;8.60;99.90
18321;DHT22;54904;54.350;18.664;2024-01-11T10:09:15;8.40;99.90
18321;DHT22;54904;54.350;18.664;2024-01-11T10:11:42;8.30;99.90
18321;DHT22;54904;54.350;18.664;2024-01-11T10:14:12;8.10;99.90
18321;DHT22;54904;54.350;18.664;2024-01-11T10:16:39;8.00;99.90
18321;DHT22;54904;54.350;18.664;2024-01-11T10:19:08;7.80;99.90
18321;DHT22;54904;54.350;18.664;2024-01-11T10:21:38;7.70;99.90
18321;DHT22;54904;54.350;18.664;2024-01-11T10:24:08;7.60;99.90
18321;DHT22;54904;54.350;18.664;2024-01-11T10:26:37;7.50;99.90
18321;DHT22;54904;54.350;18.664;2024-01-11T10:29:06;7.40;99.90
18321;DHT22;54904;54.350;18.664;2024-01-11T10:31:36;7.30;99.90
18321;DHT22;54904;54.350;18.664;2024-01-11T10:34:04;7.30;99.90
18321;DHT22;54904;54.350;18.664;2024-01-11T10:36:32;7.20;99.90
18321;DHT22;54904;54.350;18.664;2024-01-11T10:39:02;7.10;99.90
18321;DHT22;54904;54.350;18.664;2024-01-11T10:41:32;7.00;99.90
18321;DHT22;54904;54.350;18.664;2024-01-11T10:44:07;7.00;99.90
18321;DHT22;54904;54.350;18.664;2024-01-11T10:46:37;7.00;99.90
18321;DHT22;54904;54.350;18.664;2024-01-11T10:49:06;6.90;99.90
18321;DHT22;54904;54.350;18.664;2024-01-11T10:51:34;6.90;99.90
18321;DHT22;54904;54.350;18.664;2024-01-11T10:54:02;6.90;99.90
18321;DHT22;54904;54.350;18.664;2024-01-11T10:56:31;6.90;99.90
18321;DHT22;54904;54.350;18.664;2024-01-11T10:59:00;6.90;99.90
18321;DHT22;54904;54.350;18.664;2024-01-11T11:01:29;6.90;99.90
18321;DHT22;54904;54.350;18.664;2024-01-11T11:03:57;6.90;99.90
18321;DHT22;54904;54.350;18.664;2024-01-11T11:06:26;6.80;99.90
18321;DHT22;54904;54.350;18.664;2024-01-11T11:08:54;6.80;99.90
18321;DHT22;54904;54.350;18.664;2024-01-11T11:11:22;6.80;99.90
18321;DHT22;54904;54.350;18.664;2024-01-11T11:13:50;6.80;99.90
18321;DHT22;54904;54.350;18.664;2024-01-11T11:16:17;6.80;99.90
18321;DHT22;54904;54.350;18.664;2024-01-11T11:18:47;6.70;99.90
18321;DHT22;54904;54.350;18.664;2024-01-11T11:21:15;6.80;99.90
18321;DHT22;54904;54.350;18.664;2024-01-11T11:23:42;6.80;99.90
18321;DHT22;54904;54.350;18.664;2024-01-11T11:26:14;6.70;99.90
18321;DHT22;54904;54.350;18.664;2024-01-11T11:28:42;6.80;99.90
18321;DHT22;54904;54.350;18.664;2024-01-11T11:31:11;6.80;99.90
18321;DHT22;54904;54.350;18.664;2024-01-11T11:33:38;6.70;99.90
18321;DHT22;54904;54.350;18.664;2024-01-11T11:36:12;6.70;99.90
18321;DHT22;54904;54.350;18.664;2024-01-11T11:38:39;6.70;99.90
18321;DHT22;54904;54.350;18.664;2024-01-11T11:41:07;6.70;99.90
18321;DHT22;54904;54.350;18.664;2024-01-11T11:43:34;6.70;99.90
18321;DHT22;54904;54.350;18.664;2024-01-11T11:46:03;6.70;99.90
18321;DHT22;54904;54.350;18.664;2024-01-11T11:48:52;6.70;99.90
18321;DHT22;54904;54.350;18.664;2024-01-11T11:51:23;6.70;99.90
18321;DHT22;54904;54.350;18.664;2024-01-11T11:53:51;6.70;99.90
18321;DHT22;54904;54.350;18.664;2024-01-11T11:56:20;6.70;99.90
18321;DHT22;54904;54.350;18.664;2024-01-11T11:58:48;6.80;99.90
18321;DHT22;54904;54.350;18.664;2024-01-11T12:01:18;7.00;99.90
18321;DHT22;54904;54.350;18.664;2024-01-11T12:03:45;7.10;99.90
18321;DHT22;54904;54.350;18.664;2024-01-11T12:06:15;7.20;99.90
18321;DHT22;54904;54.350;18.664;2024-01-11T12:08:45;7.20;99.90
18321;DHT22;54904;54.350;18.664;2024-01-11T12:11:13;7.20;99.90
18321;DHT22;54904;54.350;18.664;2024-01-11T12:13:41;7.20;99.90
18321;DHT22;54904;54.350;18.664;2024-01-11T12:16:10;7.20;99.90
18321;DHT22;54904;54.350;18.664;2024-01-11T12:18:38;7.10;99.90
18321;DHT22;54904;54.350;18.664;2024-01-11T12:21:05;7.10;99.90
18321;DHT22;54904;54.350;18.664;2024-01-11T12:23:34;7.00;99.90
18321;DHT22;54904;54.350;18.664;2024-01-11T12:26:03;7.00;99.90
18321;DHT22;54904;54.350;18.664;2024-01-11T12:28:31;7.00;99.90
18321;DHT22;54904;54.350;18.664;2024-01-11T12:30:59;7.00;99.90
18321;DHT22;54904;54.350;18.664;2024-01-11T12:33:26;7.00;99.90
18321;DHT22;54904;54.350;18.664;2024-01-11T12:35:54;7.00;99.90
18321;DHT22;54904;54.350;18.664;2024-01-11T12:38:21;7.00;99.90
18321;DHT22;54904;54.350;18.664;2024-01-11T12:40:48;6.90;99.90
18321;DHT22;54904;54.350;18.664;2024-01-11T12:43:17;6.90;99.90
18321;DHT22;54904;54.350;18.664;2024-01-11T12:45:44;6.90;99.90
18321;DHT22;54904;54.350;18.664;2024-01-11T12:48:11;6.90;99.90
18321;DHT22;54904;54.350;18.664;2024-01-11T12:50:42;6.80;99.90
18321;DHT22;54904;54.350;18.664;2024-01-11T12:53:11;6.80;99.90
18321;DHT22;54904;54.350;18.664;2024-01-11T12:55:44;6.80;99.90
18321;DHT22;54904;54.350;18.664;2024-01-11T12:58:11;6.80;99.90
18321;DHT22;54904;54.350;18.664;2024-01-11T13:00:40;6.80;99.90
18321;DHT22;54904;54.350;18.664;2024-01-11T13:03:07;6.80;99.90
18321;DHT22;54904;54.350;18.664;2024-01-11T13:05:35;6.80;99.90
18321;DHT22;54904;54.350;18.664;2024-01-11T13:08:08;6.80;99.90
18321;DHT22;54904;54.350;18.664;2024-01-11T13:10:35;6.80;99.90
18321;DHT22;54904;54.350;18.664;2024-01-11T13:13:03;6.90;99.90
18321;DHT22;54904;54.350;18.664;2024-01-11T13:15:30;6.90;99.90
18321;DHT22;54904;54.350;18.664;2024-01-11T13:17:59;6.90;99.90
18321;DHT22;54904;54.350;18.664;2024-01-11T13:20:27;6.90;99.90
18321;DHT22;54904;54.350;18.664;2024-01-11T13:23:12;6.90;99.90
18321;DHT22;54904;54.350;18.664;2024-01-11T13:25:40;6.90;99.90
18321;DHT22;54904;54.350;18.664;2024-01-11T13:28:08;6.80;99.90
18321;DHT22;54904;54.350;18.664;2024-01-11T13:30:39;6.80;99.90
18321;DHT22;54904;54.350;18.664;2024-01-11T13:33:08;6.80;99.90
18321;DHT22;54904;54.350;18.664;2024-01-11T13:35:35;6.80;99.90
18321;DHT22;54904;54.350;18.664;2024-01-11T13:38:02;6.80;99.90
18321;DHT22;54904;54.350;18.664;2024-01-11T13:40:30;6.80;99.90
18321;DHT22;54904;54.350;18.664;2024-01-11T13:42:57;6.80;99.90
18321;DHT22;54904;54.350;18.664;2024-01-11T13:45:25;6.80;99.90
18321;DHT22;54904;54.350;18.664;2024-01-11T13:47:52;6.80;99.90
18321;DHT22;54904;54.350;18.664;2024-01-11T13:50:22;6.80;99.90
18321;DHT22;54904;54.350;18.664;2024-01-11T13:52:50;6.80;99.90
18321;DHT22;54904;54.350;18.664;2024-01-11T13:55:17;6.80;99.90
18321;DHT22;54904;54.350;18.664;2024-01-11T13:57:45;6.80;99.90
18321;DHT22;54904;54.350;18.664;2024-01-11T14:00:13;6.80;99.90
18321;DHT22;54904;54.350;18.664;2024-01-11T14:02:40;6.80;99.90
18321;DHT22;54904;54.350;18.664;2024-01-11T14:05:08;6.70;99.90
18321;DHT22;54904;54.350;18.664;2024-01-11T14:07:39;6.70;99.90
18321;DHT22;54904;54.350;18.664;2024-01-11T14:10:07;6.70;99.90
18321;DHT22;54904;54.350;18.664;2024-01-11T14:12:35;6.70;99.90
18321;DHT22;54904;54.350;18.664;2024-01-11T14:15:03;6.70;99.90
18321;DHT22;54904;54.350;18.664;2024-01-11T14:17:31;6.70;99.90
18321;DHT22;54904;54.350;18.664;2024-01-11T14:19:59;6.70;99.90
18321;DHT22;54904;54.350;18.664;2024-01-11T14:22:28;6.60;99.90
18321;DHT22;54904;54.350;18.664;2024-01-11T14:24:56;6.60;99.90
18321;DHT22;54904;54.350;18.664;2024-01-11T14:27:28;6.60;99.90
18321;DHT22;54904;54.350;18.664;2024-01-11T14:30:06;6.60;99.90
18321;DHT22;54904;54.350;18.664;2024-01-11T14:32:35;6.60;99.90
18321;DHT22;54904;54.350;18.664;2024-01-11T14:35:14;6.60;99.90
18321;DHT22;54904;54.350;18.664;2024-01-11T14:37:43;6.50;99.90
18321;DHT22;54904;54.350;18.664;2024-01-11T14:40:11;6.50;99.90
18321;DHT22;54904;54.350;18.664;2024-01-11T14:42:40;6.50;99.90
18321;DHT22;54904;54.350;18.664;2024-01-11T14:45:10;6.50;99.90
18321;DHT22;54904;54.350;18.664;2024-01-11T14:47:40;6.40;99.90
18321;DHT22;54904;54.350;18.664;2024-01-11T14:50:08;6.40;99.90
18321;DHT22;54904;54.350;18.664;2024-01-11T14:52:38;6.40;99.90
18321;DHT22;54904;54.350;18.664;2024-01-11T14:55:06;6.30;99.90
18321;DHT22;54904;54.350;18.664;2024-01-11T14:57:41;6.30;99.90
18321;DHT22;54904;54.350;18.664;2024-01-11T15:00:09;6.30;99.90
18321;DHT22;54904;54.350;18.664;2024-01-11T15:02:39;6.20;99.90
18321;DHT22;54904;54.350;18.664;2024-01-11T15:05:13;6.20;99.90
18321;DHT22;54904;54.350;18.664;2024-01-11T15:07:40;6.20;99.90
18321;DHT22;54904;54.350;18.664;2024-01-11T15:10:12;6.10;99.90
18321;DHT22;54904;54.350;18.664;2024-01-11T15:12:43;6.00;99.90
18321;DHT22;54904;54.350;18.664;2024-01-11T15:15:10;6.00;99.90
18321;DHT22;54904;54.350;18.664;2024-01-11T15:17:37;6.00;99.90
18321;DHT22;54904;54.350;18.664;2024-01-11T15:20:07;6.00;99.90
18321;DHT22;54904;54.350;18.664;2024-01-11T15:22:35;6.00;99.90
18321;DHT22;54904;54.350;18.664;2024-01-11T15:25:03;6.00;99.90
18321;DHT22;54904;54.350;18.664;2024-01-11T15:27:32;5.90;99.90
18321;DHT22;54904;54.350;18.664;2024-01-11T15:30:02;5.90;99.90
18321;DHT22;54904;54.350;18.664;2024-01-11T15:32:32;5.80;99.90
18321;DHT22;54904;54.350;18.664;2024-01-11T15:34:59;5.80;99.90
18321;DHT22;54904;54.350;18.664;2024-01-11T15:37:26;5.70;99.90